createdAt,value
2022-12-12T00:01:57.167Z,-6.64
2022-12-12T00:04:24.610Z,-6.61
2022-12-12T00:06:53.378Z,-6.55
2022-12-12T00:09:20.805Z,-6.55
2022-12-12T00:11:48.233Z,-6.52
2022-12-12T00:14:15.712Z,-6.53
2022-12-12T00:16:43.125Z,-6.53
2022-12-12T00:19:10.577Z,-6.47
2022-12-12T00:21:38.813Z,-6.37
2022-12-12T00:24:08.157Z,-6.34
2022-12-12T00:26:36.618Z,-6.36
2022-12-12T00:29:04.967Z,-6.31
2022-12-12T00:31:33.060Z,-6.25
2022-12-12T00:34:00.639Z,-6.27
2022-12-12T00:36:32.314Z,-6.35
2022-12-12T00:39:00.845Z,-6.19
2022-12-12T00:41:29.738Z,-6.20
2022-12-12T00:43:57.211Z,-6.27
2022-12-12T00:46:26.408Z,-6.23
2022-12-12T00:48:56.070Z,-6.14
2022-12-12T00:51:25.334Z,-6.12
2022-12-12T00:53:53.422Z,-6.16
2022-12-12T00:56:23.112Z,-6.10
2022-12-12T00:58:52.324Z,-6.15
2022-12-12T01:01:23.582Z,-6.14
2022-12-12T01:03:51.678Z,-6.09
2022-12-12T01:06:19.174Z,-6.18
2022-12-12T01:08:46.861Z,-6.02
2022-12-12T01:11:15.793Z,-6.06
2022-12-12T01:13:43.873Z,-6.09
2022-12-12T01:16:13.327Z,-6.02
2022-12-12T01:18:42.071Z,-6.02
2022-12-12T01:21:10.726Z,-6.02
2022-12-12T01:23:38.456Z,-6.01
2022-12-12T01:26:08.252Z,-5.97
2022-12-12T01:28:36.270Z,-5.92
2022-12-12T01:31:03.859Z,-5.96
2022-12-12T01:33:33.020Z,-6.04
2022-12-12T01:36:00.451Z,-5.97
2022-12-12T01:38:27.879Z,-5.98
2022-12-12T01:40:55.832Z,-5.98
2022-12-12T01:43:25.372Z,-6.04
2022-12-12T01:46:32.869Z,-5.95
2022-12-12T01:49:06.945Z,-5.96
2022-12-12T01:51:34.924Z,-5.97
2022-12-12T01:54:06.776Z,-5.97
2022-12-12T01:56:35.600Z,-5.97
2022-12-12T01:59:05.515Z,-5.94
2022-12-12T02:01:33.899Z,-6.06
2022-12-12T02:04:03.351Z,-6.04
2022-12-12T02:06:31.720Z,-6.07
2022-12-12T02:09:04.055Z,-6.04
2022-12-12T02:11:33.410Z,-6.15
2022-12-12T02:14:04.089Z,-6.08
2022-12-12T02:16:48.229Z,-6.09
2022-12-12T02:19:43.586Z,-6.04
2022-12-12T02:22:20.390Z,-6.05
2022-12-12T02:25:17.399Z,-6.01
2022-12-12T02:28:08.639Z,-6.02
2022-12-12T02:30:44.325Z,-6.01
2022-12-12T02:33:23.722Z,-6.06
2022-12-12T02:36:02.455Z,-6.00
2022-12-12T02:38:35.362Z,-6.04
2022-12-12T02:41:15.389Z,-6.02
2022-12-12T02:43:50.043Z,-6.02
2022-12-12T02:46:25.286Z,-6.04
2022-12-12T02:49:00.379Z,-6.00
2022-12-12T02:51:30.111Z,-5.96
2022-12-12T02:53:59.811Z,-6.01
2022-12-12T02:56:48.291Z,-5.97
2022-12-12T02:59:21.646Z,-5.97
2022-12-12T03:02:06.324Z,-6.00
2022-12-12T03:05:03.255Z,-5.99
2022-12-12T03:07:48.040Z,-6.19
2022-12-12T03:10:30.668Z,-6.04
2022-12-12T03:13:07.359Z,-6.09
2022-12-12T03:15:44.510Z,-6.05
2022-12-12T03:18:24.445Z,-6.16
2022-12-12T03:20:56.612Z,-5.96
2022-12-12T03:23:28.061Z,-6.00
2022-12-12T03:26:00.120Z,-6.05
2022-12-12T03:28:32.599Z,-6.11
2022-12-12T03:31:03.904Z,-6.09
2022-12-12T03:33:38.335Z,-6.13
2022-12-12T03:36:14.067Z,-6.19
2022-12-12T03:38:44.729Z,-6.23
2022-12-12T03:41:16.508Z,-6.32
2022-12-12T03:43:52.338Z,-6.33
2022-12-12T03:46:24.534Z,-6.38
2022-12-12T03:48:56.804Z,-6.34
2022-12-12T03:51:29.139Z,-6.37
2022-12-12T03:54:00.262Z,-6.37
2022-12-12T03:56:31.628Z,-6.32
2022-12-12T03:59:04.902Z,-6.29
2022-12-12T04:01:38.931Z,-6.28
2022-12-12T04:04:13.150Z,-6.30
2022-12-12T04:06:47.650Z,-6.33
2022-12-12T04:09:35.561Z,-6.31
2022-12-12T04:12:32.139Z,-6.35
2022-12-12T04:15:23.405Z,-6.34
2022-12-12T04:18:03.021Z,-6.25
2022-12-12T04:20:57.295Z,-6.27
2022-12-12T04:23:33.372Z,-6.30
2022-12-12T04:26:26.951Z,-6.28
2022-12-12T04:29:07.618Z,-6.27
2022-12-12T04:31:39.924Z,-6.25
2022-12-12T04:34:15.759Z,-6.35
2022-12-12T04:36:46.175Z,-6.31
2022-12-12T04:39:17.125Z,-6.28
2022-12-12T04:41:47.610Z,-6.32
2022-12-12T04:44:17.208Z,-6.32
2022-12-12T04:46:47.663Z,-6.29
2022-12-12T04:49:19.586Z,-6.32
2022-12-12T04:51:52.818Z,-6.37
2022-12-12T04:54:29.712Z,-6.42
2022-12-12T04:57:02.388Z,-6.38
2022-12-12T04:59:30.535Z,-6.37
2022-12-12T05:02:03.859Z,-6.40
2022-12-12T05:04:42.297Z,-6.47
2022-12-12T05:07:14.748Z,-6.47
2022-12-12T05:09:44.513Z,-6.47
2022-12-12T05:12:12.047Z,-6.41
2022-12-12T05:14:39.444Z,-6.41
2022-12-12T05:17:12.381Z,-6.46
2022-12-12T05:19:39.801Z,-6.47
2022-12-12T05:22:07.199Z,-6.47
2022-12-12T05:24:34.609Z,-6.54
2022-12-12T05:27:03.695Z,-6.53
2022-12-12T05:29:31.900Z,-6.55
2022-12-12T05:31:59.421Z,-6.54
2022-12-12T05:34:26.848Z,-6.58
2022-12-12T05:36:54.289Z,-6.55
2022-12-12T05:39:22.126Z,-6.61
2022-12-12T05:41:49.572Z,-6.61
2022-12-12T05:44:18.365Z,-6.65
2022-12-12T05:46:45.829Z,-6.63
2022-12-12T05:49:13.251Z,-6.63
2022-12-12T05:51:40.719Z,-6.71
2022-12-12T05:54:08.158Z,-6.74
2022-12-12T05:56:35.647Z,-6.74
2022-12-12T05:59:03.176Z,-6.74
2022-12-12T06:01:32.356Z,-6.74
2022-12-12T06:03:59.928Z,-6.79
2022-12-12T06:06:27.406Z,-6.79
2022-12-12T06:08:54.817Z,-6.79
2022-12-12T06:11:22.284Z,-6.84
2022-12-12T06:13:49.689Z,-6.86
2022-12-12T06:16:19.209Z,-6.88
2022-12-12T06:18:52.100Z,-6.87
2022-12-12T06:21:20.543Z,-6.88
2022-12-12T06:23:49.896Z,-6.87
2022-12-12T06:26:19.096Z,-6.88
2022-12-12T06:28:46.690Z,-6.87
2022-12-12T06:31:15.313Z,-6.91
2022-12-12T06:33:44.124Z,-6.90
2022-12-12T06:36:16.589Z,-6.86
2022-12-12T06:38:44.200Z,-6.83
2022-12-12T06:41:14.244Z,-6.93
2022-12-12T06:43:42.551Z,-6.93
2022-12-12T06:46:14.976Z,-6.89
2022-12-12T06:48:42.538Z,-6.96
2022-12-12T06:51:15.431Z,-6.94
2022-12-12T06:53:43.456Z,-7.04
2022-12-12T06:56:14.088Z,-6.88
2022-12-12T06:58:41.711Z,-6.89
2022-12-12T07:01:09.817Z,-6.94
2022-12-12T07:03:37.280Z,-6.90
2022-12-12T07:06:05.506Z,-6.90
2022-12-12T07:08:34.650Z,-6.93
2022-12-12T07:11:05.245Z,-6.86
2022-12-12T07:13:32.771Z,-6.91
2022-12-12T07:16:00.361Z,-6.88
2022-12-12T07:18:27.798Z,-6.89
2022-12-12T07:20:55.425Z,-6.92
2022-12-12T07:23:23.212Z,-6.89
2022-12-12T07:25:52.017Z,-6.90
2022-12-12T07:28:19.423Z,-6.90
2022-12-12T07:30:48.211Z,-6.88
2022-12-12T07:33:17.513Z,-6.88
2022-12-12T07:35:45.549Z,-6.90
2022-12-12T07:38:13.259Z,-6.93
2022-12-12T07:40:41.010Z,-6.94
2022-12-12T07:43:09.776Z,-6.92
2022-12-12T07:45:37.178Z,-6.88
2022-12-12T07:48:05.019Z,-6.92
2022-12-12T07:50:32.438Z,-6.87
2022-12-12T07:52:59.832Z,-6.92
2022-12-12T07:55:27.250Z,-6.89
2022-12-12T07:57:54.663Z,-6.89
2022-12-12T08:00:23.741Z,-6.89
2022-12-12T08:02:51.286Z,-6.88
2022-12-12T08:05:19.017Z,-6.84
2022-12-12T08:07:48.276Z,-6.84
2022-12-12T08:10:15.819Z,-6.88
2022-12-12T08:12:43.291Z,-6.83
2022-12-12T08:15:16.906Z,-6.82
2022-12-12T08:17:45.664Z,-6.80
2022-12-12T08:20:13.144Z,-6.78
2022-12-12T08:22:41.543Z,-6.84
2022-12-12T08:25:09.330Z,-6.76
2022-12-12T08:27:36.787Z,-6.77
2022-12-12T08:30:05.183Z,-6.72
2022-12-12T08:32:32.584Z,-6.64
2022-12-12T08:35:01.396Z,-6.55
2022-12-12T08:37:29.274Z,-6.52
2022-12-12T08:39:56.666Z,-6.49
2022-12-12T08:42:24.175Z,-6.50
2022-12-12T08:44:52.045Z,-6.49
2022-12-12T08:47:19.514Z,-6.51
2022-12-12T08:49:46.910Z,-6.45
2022-12-12T08:52:15.712Z,-6.52
2022-12-12T08:54:43.191Z,-6.41
2022-12-12T08:57:10.609Z,-6.32
2022-12-12T08:59:38.044Z,-6.43
2022-12-12T09:02:05.631Z,-6.40
2022-12-12T09:04:34.776Z,-6.32
2022-12-12T09:07:08.084Z,-6.30
2022-12-12T09:09:37.289Z,-6.28
2022-12-12T09:12:04.990Z,-6.23
2022-12-12T09:14:32.404Z,-6.20
2022-12-12T09:16:59.801Z,-6.18
2022-12-12T09:19:27.199Z,-6.03
2022-12-12T09:21:54.728Z,-6.01
2022-12-12T09:24:23.861Z,-6.03
2022-12-12T09:26:52.672Z,-5.97
2022-12-12T09:29:20.227Z,-5.96
2022-12-12T09:31:47.767Z,-5.90
2022-12-12T09:34:15.253Z,-5.85
2022-12-12T09:36:42.678Z,-5.89
2022-12-12T09:39:10.069Z,-5.80
2022-12-12T09:41:37.586Z,-5.73
2022-12-12T09:44:09.798Z,-5.67
2022-12-12T09:46:40.533Z,-5.54
2022-12-12T09:49:13.864Z,-5.54
2022-12-12T09:51:43.479Z,-5.54
2022-12-12T09:54:14.930Z,-5.42
2022-12-12T09:56:53.430Z,-5.33
2022-12-12T09:59:31.011Z,-5.26
2022-12-12T10:02:06.399Z,-5.25
2022-12-12T10:04:40.153Z,-5.14
2022-12-12T10:07:16.713Z,-5.05
2022-12-12T10:09:56.805Z,-4.99
2022-12-12T10:12:25.964Z,-4.90
2022-12-12T10:14:58.813Z,-4.82
2022-12-12T10:17:30.437Z,-4.74
2022-12-12T10:20:01.400Z,-4.69
2022-12-12T10:22:36.746Z,-4.63
2022-12-12T10:25:16.456Z,-4.62
2022-12-12T10:27:44.375Z,-4.54
2022-12-12T10:30:18.264Z,-4.52
2022-12-12T10:33:01.864Z,-4.43
2022-12-12T10:35:33.884Z,-4.41
2022-12-12T10:38:15.606Z,-4.34
2022-12-12T10:40:56.464Z,-4.27
2022-12-12T10:43:30.281Z,-4.21
2022-12-12T10:46:21.085Z,-4.12
2022-12-12T10:48:49.556Z,-4.06
2022-12-12T10:51:20.541Z,-4.01
2022-12-12T10:53:48.219Z,-4.11
2022-12-12T10:56:21.788Z,-3.87
2022-12-12T10:58:55.109Z,-3.81
2022-12-12T11:02:00.277Z,-3.83
2022-12-12T11:04:16.612Z,-3.78
2022-12-12T11:06:47.687Z,-3.73
2022-12-12T11:09:19.382Z,-3.70
2022-12-12T11:11:58.408Z,-3.62
2022-12-12T11:14:32.550Z,-3.56
2022-12-12T11:17:01.395Z,-3.44
2022-12-12T11:19:37.938Z,-3.40
2022-12-12T11:22:05.630Z,-3.36
2022-12-12T11:24:35.169Z,-3.30
2022-12-12T11:27:05.871Z,-3.20
2022-12-12T11:29:43.263Z,-3.18
2022-12-12T11:32:15.098Z,-3.18
2022-12-12T11:34:46.974Z,-3.06
2022-12-12T11:37:20.674Z,-3.01
2022-12-12T11:39:51.827Z,-2.93
2022-12-12T11:42:30.413Z,-2.88
2022-12-12T11:45:01.059Z,-2.93
2022-12-12T11:47:35.734Z,-2.83
2022-12-12T11:50:09.306Z,-2.80
2022-12-12T11:52:38.779Z,-2.72
2022-12-12T11:55:14.445Z,-2.64
2022-12-12T11:58:04.101Z,-2.69
2022-12-12T12:00:38.973Z,-2.65
2022-12-12T12:03:28.334Z,-2.63
2022-12-12T12:06:13.128Z,-2.54
2022-12-12T12:08:54.782Z,-2.44
2022-12-12T12:11:29.126Z,-2.71
2022-12-12T12:14:15.568Z,-2.34
2022-12-12T12:16:54.736Z,-2.29
2022-12-12T12:19:31.098Z,-2.17
2022-12-12T12:22:06.871Z,-2.16
2022-12-12T12:25:05.170Z,-1.99
2022-12-12T12:27:41.313Z,-2.05
2022-12-12T12:30:21.467Z,-2.26
2022-12-12T12:33:07.799Z,-2.16
2022-12-12T12:35:49.782Z,-1.83
2022-12-12T12:38:26.363Z,-2.08
2022-12-12T12:41:16.116Z,-1.83
2022-12-12T12:43:59.084Z,-1.88
2022-12-12T12:46:37.289Z,-1.74
2022-12-12T12:49:13.586Z,-1.73
2022-12-12T12:51:50.210Z,-1.74
2022-12-12T12:54:24.008Z,-1.60
2022-12-12T12:56:57.272Z,-1.65
2022-12-12T12:59:30.497Z,-1.62
2022-12-12T13:02:02.390Z,-1.59
2022-12-12T13:04:35.068Z,-1.57
2022-12-12T13:07:12.678Z,-1.58
2022-12-12T13:09:45.014Z,-1.60
2022-12-12T13:12:18.089Z,-1.67
2022-12-12T13:14:50.161Z,-1.63
2022-12-12T13:17:21.325Z,-1.60
2022-12-12T13:19:53.331Z,-1.58
2022-12-12T13:22:31.441Z,-1.54
2022-12-12T13:25:06.876Z,-1.53
2022-12-12T13:27:41.032Z,-1.47
2022-12-12T13:30:20.415Z,-1.49
2022-12-12T13:33:11.907Z,-1.48
2022-12-12T13:35:45.831Z,-1.46
2022-12-12T13:38:22.451Z,-1.70
2022-12-12T13:40:58.105Z,-1.49
2022-12-12T13:43:31.442Z,-1.55
2022-12-12T13:45:58.974Z,-1.46
2022-12-12T13:48:46.316Z,-1.44
2022-12-12T13:51:37.383Z,-1.44
2022-12-12T13:54:54.541Z,-1.41
2022-12-12T13:57:26.748Z,-1.49
2022-12-12T14:00:28.271Z,-1.47
2022-12-12T14:03:07.022Z,-1.46
2022-12-12T14:05:37.229Z,-1.53
2022-12-12T14:08:09.035Z,-1.49
2022-12-12T14:10:40.892Z,-1.56
2022-12-12T14:13:27.466Z,-1.53
2022-12-12T14:16:04.462Z,-1.53
2022-12-12T14:18:36.416Z,-1.54
2022-12-12T14:21:07.651Z,-1.53
2022-12-12T14:23:37.009Z,-1.53
2022-12-12T14:26:49.672Z,-1.59
2022-12-12T14:29:29.865Z,-1.69
2022-12-12T14:32:18.241Z,-1.93
2022-12-12T14:34:57.506Z,-1.81
2022-12-12T14:37:48.406Z,-1.79
2022-12-12T14:40:20.462Z,-1.77
2022-12-12T14:43:19.324Z,-1.91
2022-12-12T14:45:54.302Z,-1.96
2022-12-12T14:48:24.583Z,-2.03
2022-12-12T14:50:56.917Z,-2.11
2022-12-12T14:53:26.785Z,-2.11
2022-12-12T14:55:58.036Z,-2.10
2022-12-12T14:58:28.864Z,-2.22
2022-12-12T15:01:00.007Z,-2.17
2022-12-12T15:03:32.555Z,-1.81
2022-12-12T15:06:29.374Z,-1.28
2022-12-12T15:08:58.798Z,-1.26
2022-12-12T15:11:28.903Z,-1.56
2022-12-12T15:13:58.105Z,-1.99
2022-12-12T15:16:32.178Z,-1.90
2022-12-12T15:19:00.729Z,-2.01
2022-12-12T15:21:28.252Z,-2.27
2022-12-12T15:23:55.710Z,-2.61
2022-12-12T15:26:27.776Z,-2.55
2022-12-12T15:28:55.297Z,-2.65
2022-12-12T15:31:22.982Z,-2.88
2022-12-12T15:33:51.931Z,-3.03
2022-12-12T15:36:25.901Z,-3.15
2022-12-12T15:39:15.471Z,-3.23
2022-12-12T15:41:44.167Z,-3.46
2022-12-12T15:44:19.095Z,-3.50
2022-12-12T15:46:48.296Z,-3.65
2022-12-12T15:49:42.695Z,-3.69
2022-12-12T15:52:13.092Z,-3.68
2022-12-12T15:54:47.335Z,-3.64
2022-12-12T15:57:17.742Z,-3.88
2022-12-12T15:59:45.599Z,-3.82
2022-12-12T16:02:24.436Z,-3.96
2022-12-12T16:05:04.062Z,-4.08
2022-12-12T16:07:36.455Z,-4.05
2022-12-12T16:10:21.620Z,-4.09
2022-12-12T16:12:56.340Z,-4.21
2022-12-12T16:15:31.444Z,-4.29
2022-12-12T16:18:04.982Z,-4.33
2022-12-12T16:20:35.002Z,-4.46
2022-12-12T16:23:20.755Z,-4.55
2022-12-12T16:25:48.172Z,-4.59
2022-12-12T16:28:25.553Z,-4.69
2022-12-12T16:30:57.127Z,-4.97
2022-12-12T16:33:33.214Z,-4.91
2022-12-12T16:36:04.567Z,-5.00
2022-12-12T16:38:32.444Z,-5.07
2022-12-12T16:41:02.007Z,-4.98
2022-12-12T16:43:29.581Z,-4.93
2022-12-12T16:45:58.107Z,-5.08
2022-12-12T16:48:28.114Z,-5.19
2022-12-12T16:50:58.810Z,-5.19
2022-12-12T16:53:28.037Z,-5.21
2022-12-12T16:55:55.830Z,-5.22
2022-12-12T16:58:23.356Z,-5.27
2022-12-12T17:00:53.236Z,-5.16
2022-12-12T17:03:23.262Z,-5.20
2022-12-12T17:05:51.691Z,-5.30
2022-12-12T17:08:20.198Z,-5.31
2022-12-12T17:10:50.563Z,-5.39
2022-12-12T17:13:20.468Z,-5.53
2022-12-12T17:15:47.997Z,-5.96
2022-12-12T17:18:15.452Z,-5.65
2022-12-12T17:20:43.427Z,-5.72
2022-12-12T17:23:30.302Z,-5.78
2022-12-12T17:26:03.912Z,-5.77
2022-12-12T17:28:33.159Z,-5.84
2022-12-12T17:31:00.766Z,-5.85
2022-12-12T17:33:28.232Z,-5.90
2022-12-12T17:35:59.844Z,-6.07
2022-12-12T17:38:27.906Z,-6.08
2022-12-12T17:40:56.667Z,-6.23
2022-12-12T17:43:25.695Z,-6.31
2022-12-12T17:46:00.568Z,-6.51
2022-12-12T17:48:30.428Z,-6.57
2022-12-12T17:50:59.625Z,-6.60
2022-12-12T17:53:27.884Z,-6.49
2022-12-12T17:56:01.347Z,-6.57
2022-12-12T17:58:38.040Z,-6.56
2022-12-12T18:01:11.190Z,-6.59
2022-12-12T18:03:39.074Z,-6.56
2022-12-12T18:06:07.412Z,-6.63
2022-12-12T18:08:35.318Z,-6.70
2022-12-12T18:11:03.175Z,-6.82
2022-12-12T18:13:30.975Z,-6.84
2022-12-12T18:16:00.587Z,-6.87
2022-12-12T18:18:29.737Z,-6.86
2022-12-12T18:20:57.548Z,-7.26
2022-12-12T18:23:25.031Z,-7.07
2022-12-12T18:25:52.663Z,-7.29
2022-12-12T18:28:20.307Z,-7.39
2022-12-12T18:30:50.197Z,-7.16
2022-12-12T18:33:19.101Z,-7.26
2022-12-12T18:35:46.766Z,-7.13
2022-12-12T18:38:14.356Z,-6.98
2022-12-12T18:40:42.000Z,-7.02
2022-12-12T18:43:09.587Z,-6.97
2022-12-12T18:45:37.527Z,-6.91
2022-12-12T18:48:08.405Z,-6.85
2022-12-12T18:50:37.467Z,-7.19
2022-12-12T18:53:05.191Z,-6.79
2022-12-12T18:55:32.864Z,-6.82
2022-12-12T18:58:00.944Z,-6.89
2022-12-12T19:00:28.635Z,-7.21
2022-12-12T19:02:56.337Z,-7.34
2022-12-12T19:05:23.939Z,-7.08
2022-12-12T19:07:52.855Z,-7.30
2022-12-12T19:10:20.581Z,-7.79
2022-12-12T19:12:48.211Z,-7.46
2022-12-12T19:15:17.515Z,-7.22
2022-12-12T19:17:45.432Z,-7.46
2022-12-12T19:20:13.916Z,-7.54
2022-12-12T19:22:46.363Z,-7.48
2022-12-12T19:25:16.040Z,-7.71
2022-12-12T19:27:43.910Z,-7.64
2022-12-12T19:30:13.911Z,-7.56
2022-12-12T19:32:41.746Z,-7.65
2022-12-12T19:35:09.912Z,-7.58
2022-12-12T19:37:37.607Z,-7.63
2022-12-12T19:40:05.785Z,-7.55
2022-12-12T19:42:34.645Z,-7.44
2022-12-12T19:45:04.267Z,-7.44
2022-12-12T19:47:32.904Z,-7.95
2022-12-12T19:50:00.646Z,-7.61
2022-12-12T19:52:29.148Z,-7.82
2022-12-12T19:54:56.682Z,-7.84
2022-12-12T19:57:26.246Z,-7.82
2022-12-12T19:59:58.028Z,-7.77
2022-12-12T20:02:25.671Z,-7.94
2022-12-12T20:04:53.365Z,-8.21
2022-12-12T20:07:20.954Z,-8.56
2022-12-12T20:09:48.555Z,-8.00
2022-12-12T20:12:16.051Z,-7.99
2022-12-12T20:14:43.564Z,-8.09
2022-12-12T20:17:12.601Z,-7.96
2022-12-12T20:19:40.105Z,-7.79
2022-12-12T20:22:07.688Z,-7.84
2022-12-12T20:24:36.968Z,-7.82
2022-12-12T20:27:04.830Z,-8.22
2022-12-12T20:29:32.492Z,-8.17
2022-12-12T20:32:01.260Z,-8.20
2022-12-12T20:34:30.583Z,-8.35
2022-12-12T20:36:58.546Z,-8.51
2022-12-12T20:39:26.211Z,-8.35
2022-12-12T20:41:54.318Z,-8.42
2022-12-12T20:44:22.415Z,-8.28
2022-12-12T20:46:49.997Z,-8.27
2022-12-12T20:49:19.912Z,-8.04
2022-12-12T20:51:57.714Z,-7.89
2022-12-12T20:54:27.320Z,-7.90
2022-12-12T20:56:55.619Z,-7.83
2022-12-12T20:59:23.551Z,-7.81
2022-12-12T21:01:51.502Z,-7.93
2022-12-12T21:04:19.230Z,-8.22
2022-12-12T21:06:49.394Z,-8.29
2022-12-12T21:09:24.228Z,-8.00
2022-12-12T21:11:53.863Z,-7.86
2022-12-12T21:14:21.787Z,-8.11
2022-12-12T21:16:52.238Z,-7.87
2022-12-12T21:19:20.958Z,-7.92
2022-12-12T21:21:48.543Z,-7.92
2022-12-12T21:24:19.539Z,-8.12
2022-12-12T21:26:48.061Z,-7.98
2022-12-12T21:29:16.400Z,-7.94
2022-12-12T21:31:51.082Z,-7.94
2022-12-12T21:34:19.815Z,-7.97
2022-12-12T21:36:47.467Z,-8.01
2022-12-12T21:39:15.068Z,-8.00
2022-12-12T21:41:44.170Z,-7.95
2022-12-12T21:44:11.847Z,-7.91
2022-12-12T21:46:41.838Z,-8.10
2022-12-12T21:49:26.555Z,-8.03
2022-12-12T21:51:55.901Z,-7.83
2022-12-12T21:54:24.026Z,-7.91
2022-12-12T21:57:01.297Z,-8.08
2022-12-12T21:59:29.695Z,-8.28
2022-12-12T22:01:59.538Z,-8.31
2022-12-12T22:04:27.789Z,-8.22
2022-12-12T22:06:56.978Z,-8.25
2022-12-12T22:09:26.413Z,-8.25
2022-12-12T22:12:03.065Z,-8.21
2022-12-12T22:14:31.908Z,-8.20
2022-12-12T22:16:59.511Z,-8.12
2022-12-12T22:19:27.214Z,-8.05
2022-12-12T22:21:54.848Z,-8.35
2022-12-12T22:24:22.390Z,-8.30
2022-12-12T22:26:51.034Z,-7.99
2022-12-12T22:29:21.069Z,-8.14
2022-12-12T22:31:51.952Z,-8.20
2022-12-12T22:34:22.052Z,-8.20
2022-12-12T22:36:50.330Z,-8.34
2022-12-12T22:39:20.595Z,-8.30
2022-12-12T22:41:48.087Z,-8.34
2022-12-12T22:44:16.927Z,-8.54
2022-12-12T22:46:47.523Z,-8.57
2022-12-12T22:49:16.479Z,-8.51
2022-12-12T22:51:44.642Z,-8.54
2022-12-12T22:54:12.541Z,-8.65
2022-12-12T22:56:41.093Z,-8.79
2022-12-12T22:59:11.133Z,-8.57
2022-12-12T23:01:38.564Z,-8.64
2022-12-12T23:04:07.593Z,-8.37
2022-12-12T23:06:36.528Z,-8.31
2022-12-12T23:09:06.789Z,-8.07
2022-12-12T23:11:36.467Z,-8.06
2022-12-12T23:14:07.056Z,-7.95
2022-12-12T23:16:36.210Z,-8.03
2022-12-12T23:19:05.722Z,-7.93
2022-12-12T23:21:36.113Z,-7.92
2022-12-12T23:24:04.404Z,-7.88
2022-12-12T23:26:32.803Z,-8.12
2022-12-12T23:29:00.844Z,-7.97
2022-12-12T23:31:30.438Z,-8.11
2022-12-12T23:34:01.229Z,-7.99
2022-12-12T23:36:29.453Z,-7.97
2022-12-12T23:38:59.693Z,-7.83
2022-12-12T23:41:27.863Z,-7.96
2022-12-12T23:43:56.073Z,-8.17
2022-12-12T23:46:31.777Z,-7.80
2022-12-12T23:49:00.953Z,-7.71
2022-12-12T23:51:30.688Z,-7.73
2022-12-12T23:54:00.837Z,-7.68
2022-12-12T23:56:29.410Z,-7.91
2022-12-12T23:58:57.857Z,-7.65
